createdAt,value
2022-08-06T00:00:08.123Z,4.55
2022-08-06T00:02:42.017Z,5.03
2022-08-06T00:05:17.899Z,4.30
2022-08-06T00:07:53.313Z,4.75
2022-08-06T00:10:29.770Z,4.70
2022-08-06T00:13:04.447Z,4.43
2022-08-06T00:16:05.859Z,4.53
2022-08-06T00:18:24.084Z,5.03
2022-08-06T00:20:53.747Z,4.78
2022-08-06T00:23:24.315Z,4.30
2022-08-06T00:25:54.731Z,5.07
2022-08-06T00:28:31.444Z,4.43
2022-08-06T00:31:05.587Z,5.05
2022-08-06T00:33:43.962Z,5.18
2022-08-06T00:36:24.963Z,4.57
2022-08-06T00:38:54.505Z,5.10
2022-08-06T00:41:27.101Z,5.68
2022-08-06T00:44:02.466Z,4.60
2022-08-06T00:46:34.436Z,4.97
2022-08-06T00:49:11.515Z,5.82
2022-08-06T00:51:50.312Z,4.80
2022-08-06T00:54:27.384Z,5.10
2022-08-06T00:56:57.578Z,5.05
2022-08-06T00:59:35.412Z,5.88
2022-08-06T01:02:10.029Z,5.32
2022-08-06T01:04:39.845Z,5.10
2022-08-06T01:07:08.818Z,4.80
2022-08-06T01:09:57.034Z,4.80
2022-08-06T01:12:33.820Z,4.68
2022-08-06T01:15:15.618Z,5.40
2022-08-06T01:17:59.754Z,4.82
2022-08-06T01:21:59.508Z,4.82
2022-08-06T01:23:49.516Z,4.80
2022-08-06T01:26:40.805Z,4.95
2022-08-06T01:29:17.626Z,4.80
2022-08-06T01:31:52.307Z,5.38
2022-08-06T01:34:31.733Z,5.10
2022-08-06T01:37:11.784Z,5.35
2022-08-06T01:39:53.291Z,4.60
2022-08-06T01:42:35.917Z,5.25
2022-08-06T01:45:11.877Z,4.85
2022-08-06T01:47:54.143Z,5.60
2022-08-06T01:50:30.193Z,5.53
2022-08-06T01:55:56.692Z,5.72
2022-08-06T01:58:30.161Z,5.55
2022-08-06T02:01:04.412Z,5.68
2022-08-06T02:03:39.105Z,5.93
2022-08-06T02:06:23.354Z,5.65
2022-08-06T02:09:22.385Z,5.50
2022-08-06T02:12:03.879Z,5.60
2022-08-06T02:14:41.866Z,5.70
2022-08-06T02:17:17.988Z,5.20
2022-08-06T02:20:18.638Z,5.82
2022-08-06T02:22:52.409Z,6.10
2022-08-06T02:25:30.777Z,5.70
2022-08-06T02:28:03.020Z,6.93
2022-08-06T02:30:37.065Z,6.68
2022-08-06T02:33:18.255Z,5.13
2022-08-06T02:35:50.992Z,6.07
2022-08-06T02:38:29.303Z,6.15
2022-08-06T02:41:03.652Z,6.07
2022-08-06T02:43:39.537Z,5.70
2022-08-06T02:46:14.940Z,5.85
2022-08-06T02:48:51.697Z,5.75
2022-08-06T02:51:44.018Z,5.97
2022-08-06T02:54:19.937Z,6.10
2022-08-06T02:56:52.419Z,7.22
2022-08-06T02:59:38.841Z,6.82
2022-08-06T03:02:14.819Z,6.38
2022-08-06T03:04:56.590Z,5.70
2022-08-06T03:07:29.220Z,5.40
2022-08-06T03:10:02.265Z,5.22
2022-08-06T03:12:33.263Z,5.25
2022-08-06T03:15:12.400Z,4.70
2022-08-06T03:17:47.706Z,6.38
2022-08-06T03:20:25.392Z,6.35
2022-08-06T03:22:57.414Z,5.20
2022-08-06T03:25:31.115Z,5.97
2022-08-06T03:28:02.516Z,5.53
2022-08-06T03:30:34.079Z,5.50
2022-08-06T03:33:07.856Z,5.32
2022-08-06T03:36:00.707Z,6.25
2022-08-06T03:38:33.944Z,5.13
2022-08-06T03:41:09.064Z,5.50
2022-08-06T03:43:55.923Z,5.88
2022-08-06T03:46:32.587Z,5.10
2022-08-06T03:49:07.250Z,5.55
2022-08-06T03:51:51.988Z,5.18
2022-08-06T03:54:30.429Z,5.40
2022-08-06T03:57:08.302Z,6.00
2022-08-06T03:59:57.564Z,6.20
2022-08-06T04:02:37.088Z,5.45
2022-08-06T04:05:22.912Z,5.20
2022-08-06T04:07:57.193Z,5.30
2022-08-06T04:10:33.790Z,5.93
2022-08-06T04:14:03.722Z,6.07
2022-08-06T04:18:42.370Z,5.80
2022-08-06T04:21:20.745Z,5.57
2022-08-06T04:23:53.649Z,6.13
2022-08-06T04:26:28.736Z,5.93
2022-08-06T04:28:59.014Z,6.30
2022-08-06T04:32:11.170Z,5.80
2022-08-06T04:34:27.364Z,6.00
2022-08-06T04:37:01.369Z,6.57
2022-08-06T04:39:37.737Z,7.60
2022-08-06T04:42:19.619Z,6.65
2022-08-06T04:44:56.029Z,7.00
2022-08-06T04:47:41.373Z,6.43
2022-08-06T04:50:12.064Z,7.97
2022-08-06T04:52:48.135Z,11.23
2022-08-06T04:55:23.737Z,6.57
2022-08-06T04:57:56.371Z,6.15
2022-08-06T05:00:32.095Z,6.97
2022-08-06T05:03:20.959Z,7.28
2022-08-06T05:06:16.054Z,5.93
2022-08-06T05:08:52.205Z,6.00
2022-08-06T05:11:26.642Z,5.80
2022-08-06T05:13:59.772Z,5.40
2022-08-06T05:16:31.752Z,5.85
2022-08-06T05:19:20.184Z,6.13
2022-08-06T05:22:10.685Z,5.82
2022-08-06T05:25:00.553Z,5.40
2022-08-06T05:27:54.256Z,5.90
2022-08-06T05:30:22.924Z,5.38
2022-08-06T05:32:57.341Z,5.15
2022-08-06T05:35:40.376Z,5.43
2022-08-06T05:38:11.777Z,5.10
2022-08-06T05:40:53.605Z,5.93
2022-08-06T05:43:59.058Z,5.97
2022-08-06T05:46:21.467Z,5.55
2022-08-06T05:49:02.428Z,5.13
2022-08-06T05:51:48.819Z,5.32
2022-08-06T05:54:24.297Z,5.47
2022-08-06T05:56:56.103Z,5.32
2022-08-06T05:59:38.008Z,5.38
2022-08-06T06:02:22.833Z,6.18
2022-08-06T06:06:02.021Z,5.28
2022-08-06T06:08:08.261Z,5.13
2022-08-06T06:10:34.813Z,4.97
2022-08-06T06:13:04.848Z,5.13
2022-08-06T06:16:04.645Z,4.50
2022-08-06T06:18:47.229Z,5.10
2022-08-06T06:21:32.922Z,4.85
2022-08-06T06:24:16.644Z,5.28
2022-08-06T06:26:54.708Z,6.75
2022-08-06T06:30:05.595Z,4.88
2022-08-06T06:32:41.231Z,5.10
2022-08-06T06:35:32.534Z,5.18
2022-08-06T06:38:20.413Z,4.97
2022-08-06T06:41:06.630Z,4.65
2022-08-06T06:43:55.515Z,4.57
2022-08-06T06:46:37.615Z,4.47
2022-08-06T06:49:59.602Z,4.13
2022-08-06T06:52:10.841Z,3.97
2022-08-06T06:54:45.597Z,4.13
2022-08-06T06:57:23.518Z,4.25
2022-08-06T07:00:01.412Z,5.18
2022-08-06T07:02:49.437Z,5.10
2022-08-06T07:06:05.535Z,4.22
2022-08-06T07:08:16.261Z,4.78
2022-08-06T07:11:00.857Z,3.90
2022-08-06T07:13:47.882Z,3.67
2022-08-06T07:16:35.652Z,3.97
2022-08-06T07:19:10.466Z,3.93
2022-08-06T07:21:47.783Z,4.43
2022-08-06T07:24:38.193Z,4.10
2022-08-06T07:27:15.289Z,4.25
2022-08-06T07:29:49.123Z,4.10
2022-08-06T07:32:32.514Z,3.78
2022-08-06T07:35:11.915Z,4.30
2022-08-06T07:37:49.088Z,3.88
2022-08-06T07:40:24.487Z,3.70
2022-08-06T07:43:03.352Z,4.15
2022-08-06T07:45:50.881Z,3.60
2022-08-06T07:48:28.723Z,3.90
2022-08-06T07:51:05.256Z,4.97
2022-08-06T07:56:29.537Z,3.95
2022-08-06T07:59:01.415Z,3.40
2022-08-06T08:01:37.077Z,3.20
2022-08-06T08:04:35.153Z,4.28
2022-08-06T08:07:14.703Z,3.28
2022-08-06T08:10:02.633Z,3.30
2022-08-06T08:12:36.305Z,3.90
2022-08-06T08:15:18.404Z,4.03
2022-08-06T08:17:57.273Z,5.10
2022-08-06T08:20:34.433Z,3.55
2022-08-06T08:23:08.390Z,3.50
2022-08-06T08:25:40.435Z,3.22
2022-08-06T08:28:14.960Z,3.45
2022-08-06T08:30:49.377Z,4.85
2022-08-06T08:33:19.181Z,4.13
2022-08-06T08:35:50.381Z,3.13
2022-08-06T08:38:30.047Z,2.42
2022-08-06T08:41:03.573Z,3.20
2022-08-06T08:43:58.789Z,3.63
2022-08-06T08:46:30.913Z,3.55
2022-08-06T08:49:04.870Z,3.25
2022-08-06T08:51:36.638Z,3.20
2022-08-06T08:54:16.612Z,3.47
2022-08-06T08:57:11.132Z,3.20
2022-08-06T08:59:57.702Z,3.30
2022-08-06T09:02:28.370Z,2.95
2022-08-06T09:04:58.376Z,3.03
2022-08-06T09:07:36.943Z,2.95
2022-08-06T09:10:09.303Z,2.70
2022-08-06T09:15:19.062Z,2.83
2022-08-06T09:18:12.006Z,2.67
2022-08-06T09:20:41.278Z,2.63
2022-08-06T09:23:17.275Z,2.35
2022-08-06T09:25:52.149Z,2.72
2022-08-06T09:28:35.842Z,2.90
2022-08-06T09:31:10.310Z,2.47
2022-08-06T09:34:19.199Z,2.42
2022-08-06T09:36:52.369Z,2.70
2022-08-06T09:39:59.980Z,2.53
2022-08-06T09:42:39.183Z,2.50
2022-08-06T09:45:16.154Z,2.80
2022-08-06T09:47:57.946Z,2.88
2022-08-06T09:50:39.194Z,2.97
2022-08-06T09:53:14.328Z,2.60
2022-08-06T09:55:44.666Z,2.35
2022-08-06T09:58:14.229Z,3.10
2022-08-06T10:00:46.253Z,3.00
2022-08-06T10:04:03.395Z,2.70
2022-08-06T10:06:14.640Z,3.05
2022-08-06T10:08:49.564Z,2.88
2022-08-06T10:11:41.192Z,2.83
2022-08-06T10:14:24.019Z,2.55
2022-08-06T10:17:14.158Z,2.10
2022-08-06T10:19:52.333Z,2.78
2022-08-06T10:22:27.088Z,2.60
2022-08-06T10:24:58.145Z,2.30
2022-08-06T10:27:36.427Z,2.72
2022-08-06T10:30:09.990Z,2.53
2022-08-06T10:32:46.023Z,2.60
2022-08-06T10:35:20.776Z,2.80
2022-08-06T10:37:58.781Z,2.72
2022-08-06T10:40:35.973Z,5.07
2022-08-06T10:43:12.550Z,2.73
2022-08-06T10:45:49.919Z,2.57
2022-08-06T10:48:56.800Z,2.70
2022-08-06T10:51:12.777Z,2.53
2022-08-06T10:54:02.480Z,2.35
2022-08-06T10:56:38.950Z,2.58
2022-08-06T10:59:15.264Z,2.55
2022-08-06T11:02:01.903Z,2.80
2022-08-06T11:04:49.653Z,2.90
2022-08-06T11:08:14.394Z,2.50
2022-08-06T11:11:19.852Z,2.40
2022-08-06T11:14:03.790Z,2.92
2022-08-06T11:16:36.106Z,2.40
2022-08-06T11:19:08.116Z,2.53
2022-08-06T11:21:59.290Z,2.80
2022-08-06T11:24:37.623Z,2.58
2022-08-06T11:27:36.042Z,2.53
2022-08-06T11:30:16.655Z,2.72
2022-08-06T11:32:55.652Z,2.75
2022-08-06T11:35:51.871Z,2.70
2022-08-06T11:39:09.843Z,2.45
2022-08-06T11:41:55.048Z,2.95
2022-08-06T11:44:32.006Z,2.47
2022-08-06T11:47:36.684Z,2.75
2022-08-06T11:50:27.185Z,3.15
2022-08-06T11:52:56.939Z,2.63
2022-08-06T11:55:28.102Z,2.60
2022-08-06T11:58:21.834Z,2.70
2022-08-06T12:01:03.726Z,2.95
2022-08-06T12:03:52.629Z,2.58
2022-08-06T12:06:27.059Z,3.10
2022-08-06T12:09:21.078Z,2.45
2022-08-06T12:11:55.627Z,2.80
2022-08-06T12:14:49.387Z,2.50
2022-08-06T12:17:21.043Z,2.85
2022-08-06T12:20:01.780Z,2.80
2022-08-06T12:22:35.731Z,2.70
2022-08-06T12:25:11.097Z,2.90
2022-08-06T12:27:50.564Z,2.58
2022-08-06T12:30:36.198Z,3.03
2022-08-06T12:33:13.875Z,2.63
2022-08-06T12:35:56.223Z,2.88
2022-08-06T12:38:31.744Z,3.17
2022-08-06T12:41:09.629Z,3.20
2022-08-06T12:43:56.705Z,3.13
2022-08-06T12:46:29.772Z,2.97
2022-08-06T12:49:03.695Z,3.03
2022-08-06T12:51:33.123Z,3.00
2022-08-06T12:54:06.969Z,2.90
2022-08-06T12:56:40.591Z,2.83
2022-08-06T12:59:23.906Z,2.90
2022-08-06T13:02:07.811Z,2.67
2022-08-06T13:04:47.047Z,3.10
2022-08-06T13:10:16.833Z,3.70
2022-08-06T13:14:02.546Z,2.88
2022-08-06T13:15:31.835Z,3.00
2022-08-06T13:18:41.586Z,2.92
2022-08-06T13:21:18.365Z,2.70
2022-08-06T13:23:49.943Z,2.95
2022-08-06T13:26:25.652Z,3.38
2022-08-06T13:30:29.158Z,3.10
2022-08-06T13:32:03.963Z,3.42
2022-08-06T13:34:51.031Z,3.13
2022-08-06T13:37:54.242Z,2.92
2022-08-06T13:40:39.271Z,3.00
2022-08-06T13:43:11.561Z,3.20
2022-08-06T13:46:08.211Z,2.97
2022-08-06T13:48:46.570Z,3.15
2022-08-06T13:51:22.186Z,2.47
2022-08-06T13:53:57.015Z,3.15
2022-08-06T13:56:31.283Z,2.80
2022-08-06T13:59:01.544Z,3.13
2022-08-06T14:01:44.170Z,3.28
2022-08-06T14:04:22.939Z,2.97
2022-08-06T14:06:59.420Z,2.83
2022-08-06T14:09:57.555Z,3.10
2022-08-06T14:12:20.783Z,3.30
2022-08-06T14:14:50.988Z,3.55
2022-08-06T14:17:19.997Z,3.28
2022-08-06T14:20:17.688Z,3.20
2022-08-06T14:22:43.132Z,3.50
2022-08-06T14:25:12.229Z,2.83
2022-08-06T14:27:44.848Z,3.25
2022-08-06T14:30:29.293Z,3.05
2022-08-06T14:33:10.889Z,3.00
2022-08-06T14:35:53.350Z,3.00
2022-08-06T14:38:31.746Z,2.80
2022-08-06T14:41:47.180Z,2.97
2022-08-06T14:44:25.960Z,3.10
2022-08-06T14:46:55.639Z,2.67
2022-08-06T14:49:33.226Z,2.50
2022-08-06T14:52:23.533Z,2.72
2022-08-06T14:54:56.283Z,2.72
2022-08-06T14:58:03.495Z,3.45
2022-08-06T15:00:34.919Z,2.97
2022-08-06T15:03:08.074Z,2.70
2022-08-06T15:06:00.071Z,3.13
2022-08-06T15:08:34.257Z,6.55
2022-08-06T15:11:06.046Z,3.30
2022-08-06T15:13:43.699Z,3.38
2022-08-06T15:16:48.138Z,3.28
2022-08-06T15:19:19.682Z,2.88
2022-08-06T15:21:57.884Z,2.72
2022-08-06T15:24:30.985Z,2.72
2022-08-06T15:27:09.190Z,3.10
2022-08-06T15:29:38.457Z,3.10
2022-08-06T15:32:18.177Z,3.55
2022-08-06T15:34:49.996Z,3.08
2022-08-06T15:37:56.494Z,3.00
2022-08-06T15:40:12.778Z,3.20
2022-08-06T15:42:43.049Z,3.28
2022-08-06T15:45:49.620Z,2.72
2022-08-06T15:48:02.891Z,3.10
2022-08-06T15:50:43.068Z,3.30
2022-08-06T15:53:23.229Z,3.08
2022-08-06T15:55:54.401Z,2.97
2022-08-06T15:58:28.998Z,3.05
2022-08-06T16:01:04.084Z,3.55
2022-08-06T16:03:56.149Z,3.00
2022-08-06T16:06:26.109Z,3.28
2022-08-06T16:08:59.557Z,3.13
2022-08-06T16:11:50.796Z,3.15
2022-08-06T16:14:20.130Z,3.20
2022-08-06T16:17:03.021Z,3.05
2022-08-06T16:19:33.997Z,3.17
2022-08-06T16:22:18.999Z,3.25
2022-08-06T16:24:48.942Z,3.55
2022-08-06T16:27:19.860Z,3.15
2022-08-06T16:29:49.382Z,4.18
2022-08-06T16:32:25.896Z,3.50
2022-08-06T16:35:00.045Z,4.72
2022-08-06T16:37:33.263Z,3.90
2022-08-06T16:40:09.851Z,3.67
2022-08-06T16:42:40.578Z,3.40
2022-08-06T16:45:14.115Z,3.38
2022-08-06T16:50:37.179Z,3.55
2022-08-06T16:54:11.520Z,3.80
2022-08-06T16:55:56.180Z,3.65
2022-08-06T16:58:35.253Z,3.60
2022-08-06T17:02:15.414Z,3.78
2022-08-06T17:04:03.214Z,3.05
2022-08-06T17:06:34.995Z,4.22
2022-08-06T17:09:16.506Z,3.55
2022-08-06T17:11:52.027Z,3.42
2022-08-06T17:14:32.064Z,3.88
2022-08-06T17:17:06.960Z,8.25
2022-08-06T17:19:38.059Z,6.95
2022-08-06T17:22:10.638Z,3.80
2022-08-06T17:24:45.005Z,4.22
2022-08-06T17:27:16.086Z,4.28
2022-08-06T17:29:48.793Z,4.20
2022-08-06T17:32:32.043Z,4.28
2022-08-06T17:35:08.933Z,4.18
2022-08-06T17:40:32.548Z,4.50
2022-08-06T17:43:13.080Z,4.47
2022-08-06T17:46:00.454Z,5.07
2022-08-06T17:48:38.881Z,4.20
2022-08-06T17:51:09.638Z,5.00
2022-08-06T17:53:54.194Z,4.82
2022-08-06T17:56:30.117Z,5.53
2022-08-06T17:59:17.978Z,5.90
2022-08-06T18:01:51.663Z,6.15
2022-08-06T18:04:30.673Z,6.15
2022-08-06T18:07:12.227Z,7.25
2022-08-06T18:10:09.313Z,6.25
2022-08-06T18:12:48.563Z,5.50
2022-08-06T18:15:19.525Z,4.95
2022-08-06T18:18:04.070Z,5.75
2022-08-06T18:20:41.749Z,5.10
2022-08-06T18:23:21.434Z,5.18
2022-08-06T18:25:57.159Z,5.30
2022-08-06T18:28:40.086Z,4.50
2022-08-06T18:31:20.094Z,4.38
2022-08-06T18:33:53.725Z,4.40
2022-08-06T18:36:33.004Z,4.82
2022-08-06T18:39:02.994Z,4.60
2022-08-06T18:41:57.058Z,4.32
2022-08-06T18:44:27.237Z,4.75
2022-08-06T18:47:03.572Z,5.53
2022-08-06T18:49:50.498Z,5.50
2022-08-06T18:52:23.166Z,5.20
2022-08-06T18:54:56.354Z,5.65
2022-08-06T18:58:04.874Z,5.30
2022-08-06T19:00:21.190Z,5.05
2022-08-06T19:02:53.839Z,6.20
2022-08-06T19:05:28.157Z,5.88
2022-08-06T19:07:59.746Z,6.88
2022-08-06T19:10:30.500Z,6.57
2022-08-06T19:12:59.790Z,5.88
2022-08-06T19:15:46.197Z,6.20
2022-08-06T19:18:24.196Z,5.88
2022-08-06T19:20:56.575Z,8.05
2022-08-06T19:24:03.520Z,6.55
2022-08-06T19:26:16.604Z,7.15
2022-08-06T19:28:50.001Z,7.40
2022-08-06T19:31:23.662Z,7.38
2022-08-06T19:34:14.572Z,6.07
2022-08-06T19:36:48.253Z,5.60
2022-08-06T19:39:52.904Z,5.78
2022-08-06T19:42:13.407Z,5.40
2022-08-06T19:45:04.290Z,5.85
2022-08-06T19:47:47.353Z,5.93
2022-08-06T19:50:19.671Z,5.88
2022-08-06T19:52:50.328Z,6.07
2022-08-06T19:56:07.020Z,5.97
2022-08-06T19:58:26.025Z,5.65
2022-08-06T20:01:31.849Z,5.63
2022-08-06T20:03:58.003Z,5.72
2022-08-06T20:06:40.268Z,5.80
2022-08-06T20:09:29.247Z,5.90
2022-08-06T20:12:11.412Z,5.40
2022-08-06T20:14:40.499Z,5.68
2022-08-06T20:17:12.909Z,5.90
2022-08-06T20:20:05.355Z,5.65
2022-08-06T20:22:31.069Z,6.05
2022-08-06T20:25:12.083Z,6.10
2022-08-06T20:29:07.713Z,5.35
2022-08-06T20:30:44.495Z,5.63
2022-08-06T20:33:19.451Z,5.72
2022-08-06T20:35:57.080Z,5.35
2022-08-06T20:41:58.828Z,5.40
2022-08-06T20:44:08.417Z,5.78
2022-08-06T20:47:00.799Z,4.78
2022-08-06T20:49:47.898Z,8.13
2022-08-06T20:52:18.042Z,5.82
2022-08-06T20:54:51.813Z,5.53
2022-08-06T20:57:27.297Z,5.05
2022-08-06T21:02:32.350Z,5.97
2022-08-06T21:05:12.874Z,6.10
2022-08-06T21:07:56.835Z,6.15
2022-08-06T21:10:30.987Z,6.30
2022-08-06T21:13:06.743Z,5.85
2022-08-06T21:15:54.868Z,6.05
2022-08-06T21:18:27.620Z,6.47
2022-08-06T21:20:57.260Z,6.15
2022-08-06T21:23:55.848Z,5.97
2022-08-06T21:26:19.130Z,5.90
2022-08-06T21:28:55.646Z,6.20
2022-08-06T21:31:27.570Z,6.20
2022-08-06T21:33:57.268Z,6.53
2022-08-06T21:36:28.867Z,6.25
2022-08-06T21:38:59.196Z,5.90
2022-08-06T21:41:54.738Z,5.97
2022-08-06T21:44:24.257Z,6.20
2022-08-06T21:46:58.789Z,5.82
2022-08-06T21:50:00.145Z,6.00
2022-08-06T21:52:27.731Z,5.88
2022-08-06T21:55:11.575Z,6.30
2022-08-06T21:57:48.077Z,6.05
2022-08-06T22:00:36.709Z,6.45
2022-08-06T22:04:36.777Z,6.45
2022-08-06T22:06:20.389Z,6.72
2022-08-06T22:08:53.009Z,6.05
2022-08-06T22:12:36.572Z,6.70
2022-08-06T22:14:16.304Z,7.28
2022-08-06T22:16:48.771Z,6.70
2022-08-06T22:19:33.414Z,7.28
2022-08-06T22:22:07.754Z,7.22
2022-08-06T22:24:38.203Z,6.63
2022-08-06T22:27:12.490Z,6.97
2022-08-06T22:30:04.425Z,7.10
2022-08-06T22:32:36.197Z,7.82
2022-08-06T22:35:09.743Z,9.05
2022-08-06T22:38:17.043Z,7.60
2022-08-06T22:40:30.591Z,6.45
2022-08-06T22:43:17.078Z,6.68
2022-08-06T22:46:02.576Z,6.30
2022-08-06T22:48:36.367Z,6.13
2022-08-06T22:51:11.771Z,6.07
2022-08-06T22:54:28.879Z,6.78
2022-08-06T22:56:38.534Z,6.93
2022-08-06T22:59:31.780Z,6.22
2022-08-06T23:02:06.817Z,6.25
2022-08-06T23:04:46.890Z,6.32
2022-08-06T23:07:21.545Z,6.75
2022-08-06T23:09:58.630Z,6.28
2022-08-06T23:12:36.094Z,6.97
2022-08-06T23:15:30.335Z,6.82
2022-08-06T23:18:00.185Z,6.30
2022-08-06T23:20:32.898Z,6.00
2022-08-06T23:23:04.855Z,6.70
2022-08-06T23:26:00.065Z,6.68
2022-08-06T23:28:23.562Z,6.63
2022-08-06T23:30:57.393Z,6.95
2022-08-06T23:33:38.590Z,7.20
2022-08-06T23:36:17.898Z,5.90
2022-08-06T23:38:50.875Z,6.53
2022-08-06T23:41:24.145Z,7.10
2022-08-06T23:43:53.693Z,7.45
2022-08-06T23:46:27.763Z,6.82
2022-08-06T23:48:58.645Z,7.43
2022-08-06T23:52:01.042Z,7.35
2022-08-06T23:54:28.404Z,6.75
2022-08-06T23:56:58.053Z,6.80
2022-08-06T23:59:45.677Z,6.72
